ฮานอย, ประเทศเวียดนาม

03:48 PM ICT วัน มีนาคม 03, 2015 (GMT +0700)
Noibai International | Change Station
CLOSE
Current Station
Airport
Location: Ha Noi,
Elevation: 36 ft
Nearby Weather Stations

Elev 36 ft 21.22 °N, 105.81 °E | Updated 18 minutes ago

Clear
ท้องฟ้าแจ่มใส
77 ฟาเรนไฮน์
Feels Like 77 ฟาเรนไฮน์
N
15
ลม ความผันแปร ลม from ทางทิศตะวันออกเฉียงเหนือ

วันนี้
High -- | Low -- ฟาเรนไฮน์
--% Chance of Precip.
Yesterday
High -- | Low -- ฟาเรนไฮน์
Precip. -- นิ้ว
6:15 AM 6:01 PM
ข้างขึ้น, 95% visible
ความดัน 29.77 นิ้ว
ทัศนวิสัย -9999.0 ไมล์
เมฆ
อุณหภูมิที่อากาศอาจจับตัวเป็นหยาดน้ำค้าง 59 ฟาเรนไฮน์
ความชื้น 54%
Rainfall 0.00 นิ้ว
Snow Depth Not available.
UV Not available.
Pollen Not available.
Air Quality Not available.
Flu Activity Not available.
METAR VVNB 030830Z 04013KT CAVOK 25/15 Q1008 NOSIG

More Conditions Fewer Conditions

ความดัน 29.77 นิ้ว
ทัศนวิสัย -9999.0 ไมล์
เมฆ
อุณหภูมิที่อากาศอาจจับตัวเป็นหยาดน้ำค้าง 59 ฟาเรนไฮน์
ความชื้น 54%
Rainfall 0.00 นิ้ว
Snow Depth Not available.
UV Not available.
Pollen Not available.
Air Quality Not available.
Flu Activity Not available.
METAR VVNB 030830Z 04013KT CAVOK 25/15 Q1008 NOSIG

More Conditions Fewer Conditions

10-Day Weather Forecast

Almanac

ดาราศาสตร์

Mar. 03, 2015 Rise Set
Actual Time
Civil Twilight
Nautical Twilight
Astronomical Twilight
Moon
Length Of Visible Light
ความยาวของวัน
Tomorrow will be .
, % of the Moon is Illuminated

Today's Extremes

Country Highs Country Lows

Community

WunderPhotos

Upload Photos

1,802,075 photos uploaded!

WunderBlogs® & News

Nearby

Air Quality

  Air Quality AQ Index Pollutant
Not available.

Snow Depth

Station Depth Elevation

Earthquake Activity

City Distance Mag. Time & Date
Minimum magnitude displayed is 2.5.

Coastal Water Temperatures

สถานที่ อุณหภูมิ

Nearby Weather Stations